4XCGO LLHZ-LLHZ

Flight info

Callsign 4XCGO
Flight time 0h 22m
Altitude 800
Route CVFR
Aircraft C172/L-V/N

Departure

Time 2026-04-16 12:21
Airport Herzliya Airport (LLHZ)

Arrival

Time 2026-04-16 12:43
Airport Herzliya Airport (LLHZ)
Time Latitude Longitude Altitude Speed Heading
2026-04-16 12:13 32.18241 34.82811 89 ft 0 kts 110°
2026-04-16 12:15 32.18240 34.82814 89 ft 3 kts 112°
2026-04-16 12:16 32.18219 34.82821 89 ft 4 kts 212°
2026-04-16 12:16 32.18197 34.82825 89 ft 3 kts 125°
2026-04-16 12:16 32.18188 34.82848 89 ft 6 kts 110°
2026-04-16 12:16 32.18176 34.82893 89 ft 4 kts 96°
2026-04-16 12:17 32.18168 34.82919 89 ft 5 kts 108°
2026-04-16 12:17 32.18157 34.82962 90 ft 2 kts 76°
2026-04-16 12:17 32.18158 34.82963 90 ft 0 kts 68°
2026-04-16 12:19 32.18168 34.82983 89 ft 3 kts 89°
2026-04-16 12:19 32.18120 34.83161 91 ft 48 kts 108°
2026-04-16 12:20 32.17979 34.83633 210 ft 63 kts 103°
2026-04-16 12:20 32.17826 34.84144 412 ft 60 kts 107°
2026-04-16 12:20 32.17700 34.84637 597 ft 73 kts 101°
2026-04-16 12:20 32.17815 34.85148 669 ft 83 kts 32°
2026-04-16 12:21 32.18395 34.85353 768 ft 94 kts 348°
2026-04-16 12:21 32.18857 34.84801 865 ft 97 kts 307°
2026-04-16 12:21 32.19230 34.84123 893 ft 103 kts 308°
2026-04-16 12:21 32.19617 34.83457 981 ft 96 kts 303°
2026-04-16 12:22 32.20009 34.82812 1109 ft 92 kts 311°
2026-04-16 12:22 32.20396 34.82250 1254 ft 94 kts 307°
2026-04-16 12:22 32.20607 34.81526 1400 ft 90 kts 254°
2026-04-16 12:22 32.20336 34.81050 1442 ft 73 kts 232°
2026-04-16 12:23 32.19913 34.80594 1331 ft 98 kts 218°
2026-04-16 12:23 32.19206 34.80295 1159 ft 110 kts 195°
2026-04-16 12:23 32.18473 34.80128 1171 ft 104 kts 195°
2026-04-16 12:23 32.17763 34.79995 1129 ft 106 kts 189°
2026-04-16 12:24 32.17030 34.79840 1069 ft 109 kts 215°
2026-04-16 12:24 32.16415 34.79373 1007 ft 94 kts 212°
2026-04-16 12:24 32.15889 34.79002 908 ft 90 kts 213°
2026-04-16 12:24 32.15330 34.78630 857 ft 93 kts 211°
2026-04-16 12:25 32.14772 34.78281 904 ft 90 kts 203°
2026-04-16 12:25 32.14147 34.77956 770 ft 99 kts 202°
2026-04-16 12:25 32.13536 34.77660 809 ft 92 kts 201°
2026-04-16 12:25 32.12917 34.77362 735 ft 96 kts 203°
2026-04-16 12:26 32.12320 34.77047 744 ft 92 kts 204°
2026-04-16 12:26 32.11769 34.76754 838 ft 87 kts 202°
2026-04-16 12:26 32.11133 34.76521 759 ft 104 kts 193°
2026-04-16 12:26 32.10428 34.76239 787 ft 104 kts 202°
2026-04-16 12:27 32.09784 34.75948 857 ft 100 kts 206°
2026-04-16 12:27 32.09129 34.75633 823 ft 107 kts 204°
2026-04-16 12:27 32.08446 34.75350 825 ft 100 kts 201°
2026-04-16 12:27 32.07795 34.75072 838 ft 100 kts 203°
2026-04-16 12:28 32.07130 34.74798 860 ft 99 kts 198°
2026-04-16 12:28 32.06487 34.74532 882 ft 98 kts 201°
2026-04-16 12:28 32.05854 34.74279 997 ft 87 kts 197°
2026-04-16 12:28 32.05276 34.74078 1017 ft 94 kts 199°
2026-04-16 12:29 32.04668 34.73865 1137 ft 85 kts 196°
2026-04-16 12:29 32.04091 34.73703 1158 ft 92 kts 192°
2026-04-16 12:29 32.03407 34.73543 1050 ft 105 kts 191°
2026-04-16 12:29 32.02699 34.73394 1039 ft 103 kts 194°
2026-04-16 12:30 32.02031 34.73160 1105 ft 95 kts 199°
2026-04-16 12:30 32.01407 34.72957 1191 ft 85 kts 195°
2026-04-16 12:30 32.01353 34.72549 1120 ft 74 kts 346°
2026-04-16 12:30 32.01863 34.72777 1050 ft 86 kts 24°
2026-04-16 12:31 32.02413 34.73051 1059 ft 84 kts 20°
2026-04-16 12:31 32.02921 34.73329 1125 ft 78 kts 23°
2026-04-16 12:31 32.03420 34.73579 1144 ft 80 kts 20°
2026-04-16 12:31 32.03960 34.73838 1101 ft 87 kts 20°
2026-04-16 12:32 32.04518 34.74131 1101 ft 87 kts 22°
2026-04-16 12:32 32.05022 34.74395 1246 ft 69 kts 24°
2026-04-16 12:32 32.05411 34.74628 1344 ft 56 kts 26°
2026-04-16 12:32 32.05809 34.74801 1377 ft 71 kts 12°
2026-04-16 12:33 32.06349 34.74962 1453 ft 90 kts 14°
2026-04-16 12:33 32.07001 34.75182 1442 ft 103 kts 14°
2026-04-16 12:33 32.07703 34.75415 1559 ft 104 kts 16°
2026-04-16 12:33 32.08447 34.75687 1507 ft 116 kts 15°
2026-04-16 12:34 32.09229 34.75955 1492 ft 120 kts 14°
2026-04-16 12:34 32.09983 34.76230 1494 ft 94 kts 20°
2026-04-16 12:34 32.10503 34.76472 1452 ft 72 kts 22°
2026-04-16 12:34 32.10931 34.76677 1406 ft 61 kts 19°
2026-04-16 12:35 32.11402 34.76811 1438 ft 76 kts 10°
2026-04-16 12:35 32.11943 34.77018 1488 ft 86 kts 21°
2026-04-16 12:35 32.12328 34.77224 1498 ft 94 kts 24°
2026-04-16 12:35 32.12936 34.77528 1557 ft 96 kts 19°
2026-04-16 12:36 32.13523 34.77854 1661 ft 93 kts 25°
2026-04-16 12:36 32.14118 34.78065 1521 ft 82 kts 16°
2026-04-16 12:36 32.14438 34.78469 1366 ft 74 kts 97°
2026-04-16 12:36 32.14240 34.79035 1333 ft 73 kts 113°
2026-04-16 12:37 32.14071 34.79536 1438 ft 61 kts 103°
2026-04-16 12:37 32.14022 34.80146 1500 ft 88 kts 90°
2026-04-16 12:37 32.14273 34.80810 1642 ft 91 kts 36°
2026-04-16 12:37 32.14831 34.81090 1511 ft 96 kts 14°
2026-04-16 12:38 32.15464 34.81279 1457 ft 95 kts 13°
2026-04-16 12:38 32.16088 34.81517 1390 ft 91 kts 20°
2026-04-16 12:38 32.16628 34.81740 1429 ft 68 kts 15°
2026-04-16 12:38 32.17088 34.81916 1511 ft 77 kts 16°
2026-04-16 12:39 32.17630 34.82114 1538 ft 85 kts 22°
2026-04-16 12:39 32.18096 34.82418 1487 ft 72 kts 56°
2026-04-16 12:39 32.18129 34.82950 1424 ft 64 kts 103°
2026-04-16 12:39 32.18025 34.83420 1347 ft 65 kts 99°
2026-04-16 12:40 32.17908 34.84041 1368 ft 85 kts 104°
2026-04-16 12:40 32.17804 34.84760 1061 ft 91 kts 84°
2026-04-16 12:40 32.18136 34.85222 1034 ft 75 kts 17°
2026-04-16 12:40 32.18646 34.85093 1058 ft 81 kts 316°
2026-04-16 12:41 32.18935 34.84542 1131 ft 80 kts 294°
2026-04-16 12:41 32.19178 34.83930 1002 ft 79 kts 295°
2026-04-16 12:41 32.19355 34.83455 1080 ft 58 kts 290°
2026-04-16 12:41 32.19511 34.82933 1075 ft 72 kts 287°
2026-04-16 12:42 32.19639 34.82356 1073 ft 68 kts 274°
2026-04-16 12:42 32.19445 34.81835 958 ft 73 kts 218°
2026-04-16 12:42 32.18989 34.81635 857 ft 67 kts 197°
2026-04-16 12:42 32.18548 34.81687 753 ft 63 kts 131°
2026-04-16 12:43 32.18417 34.82211 475 ft 73 kts 110°
2026-04-16 12:43 32.18250 34.82726 233 ft 61 kts 110°
2026-04-16 12:43 32.18121 34.83164 96 ft 47 kts 107°
2026-04-16 12:43 32.18047 34.83386 102 ft 16 kts 112°
2026-04-16 12:44 32.18003 34.83544 107 ft 21 kts 111°
2026-04-16 12:44 32.17958 34.83584 109 ft 7 kts 245°
2026-04-16 12:44 32.17972 34.83537 108 ft 5 kts 282°
2026-04-16 12:44 32.17985 34.83491 106 ft 6 kts 291°
2026-04-16 12:45 32.18022 34.83368 103 ft 18 kts 287°
2026-04-16 12:45 32.18059 34.83242 101 ft 15 kts 290°
2026-04-16 12:45 32.18091 34.83131 98 ft 14 kts 288°
2026-04-16 12:45 32.18123 34.83036 96 ft 12 kts 304°
2026-04-16 12:46 32.18159 34.82948 92 ft 12 kts 289°
2026-04-16 12:46 32.18185 34.82864 97 ft 10 kts 289°
2026-04-16 12:46 32.18201 34.82820 96 ft 4 kts 317°
2026-04-16 12:46 32.18212 34.82805 99 ft 0 kts 306°
2026-04-16 12:47 32.18221 34.82805 95 ft 2 kts 52°
2026-04-16 12:47 32.18222 34.82808 95 ft 0 kts 79°
2026-04-16 12:47 32.18223 34.82810 94 ft 0 kts 90°
2026-04-16 12:47 32.18213 34.82799 97 ft 4 kts 310°
2026-04-16 12:48 32.18221 34.82805 95 ft 0 kts 104°
2026-04-16 13:02 32.18221 34.82804 95 ft 0 kts 104°